sensor_id;sensor_type;location;lat;lon;timestamp;temperature;humidity
23507;DHT22;11930;53.076;18.250;2023-11-19T00:00:57;-0.60;99.90
23507;DHT22;11930;53.076;18.250;2023-11-19T00:03:43;-0.70;99.90
23507;DHT22;11930;53.076;18.250;2023-11-19T00:06:09;-0.80;99.90
23507;DHT22;11930;53.076;18.250;2023-11-19T00:08:37;-0.90;99.90
23507;DHT22;11930;53.076;18.250;2023-11-19T00:11:03;-1.00;99.90
23507;DHT22;11930;53.076;18.250;2023-11-19T00:13:29;-1.10;99.90
23507;DHT22;11930;53.076;18.250;2023-11-19T00:15:55;-1.20;99.90
23507;DHT22;11930;53.076;18.250;2023-11-19T00:18:22;-1.20;99.90
23507;DHT22;11930;53.076;18.250;2023-11-19T00:20:48;-1.30;99.90
23507;DHT22;11930;53.076;18.250;2023-11-19T00:23:14;-1.20;99.90
23507;DHT22;11930;53.076;18.250;2023-11-19T00:25:40;-1.30;99.90
23507;DHT22;11930;53.076;18.250;2023-11-19T00:28:06;-1.30;99.90
23507;DHT22;11930;53.076;18.250;2023-11-19T00:30:32;-1.30;99.90
23507;DHT22;11930;53.076;18.250;2023-11-19T00:32:59;-1.30;99.90
23507;DHT22;11930;53.076;18.250;2023-11-19T00:35:25;-1.30;99.90
23507;DHT22;11930;53.076;18.250;2023-11-19T00:37:52;-1.30;99.90
23507;DHT22;11930;53.076;18.250;2023-11-19T00:40:20;-1.30;99.90
23507;DHT22;11930;53.076;18.250;2023-11-19T00:42:49;-1.40;99.90
23507;DHT22;11930;53.076;18.250;2023-11-19T00:45:16;-1.40;99.90
23507;DHT22;11930;53.076;18.250;2023-11-19T00:47:42;-1.40;99.90
23507;DHT22;11930;53.076;18.250;2023-11-19T00:50:08;-1.30;99.90
23507;DHT22;11930;53.076;18.250;2023-11-19T00:52:39;-1.40;99.90
23507;DHT22;11930;53.076;18.250;2023-11-19T00:55:05;-1.40;99.90
23507;DHT22;11930;53.076;18.250;2023-11-19T00:57:32;-1.40;99.90
23507;DHT22;11930;53.076;18.250;2023-11-19T00:59:59;-1.40;99.90
23507;DHT22;11930;53.076;18.250;2023-11-19T01:02:25;-1.40;99.90
23507;DHT22;11930;53.076;18.250;2023-11-19T01:04:51;-1.30;99.90
23507;DHT22;11930;53.076;18.250;2023-11-19T01:07:18;-1.30;99.90
23507;DHT22;11930;53.076;18.250;2023-11-19T01:09:44;-1.30;99.90
23507;DHT22;11930;53.076;18.250;2023-11-19T01:12:10;-1.30;99.90
23507;DHT22;11930;53.076;18.250;2023-11-19T01:14:36;-1.30;99.90
23507;DHT22;11930;53.076;18.250;2023-11-19T01:17:03;-1.20;99.90
23507;DHT22;11930;53.076;18.250;2023-11-19T01:19:30;-1.20;99.90
23507;DHT22;11930;53.076;18.250;2023-11-19T01:21:56;-1.30;99.90
23507;DHT22;11930;53.076;18.250;2023-11-19T01:24:22;-1.30;99.90
23507;DHT22;11930;53.076;18.250;2023-11-19T01:26:48;-1.30;99.90
23507;DHT22;11930;53.076;18.250;2023-11-19T01:29:14;-1.30;99.90
23507;DHT22;11930;53.076;18.250;2023-11-19T01:31:46;-1.30;99.90
23507;DHT22;11930;53.076;18.250;2023-11-19T01:34:16;-1.30;99.90
23507;DHT22;11930;53.076;18.250;2023-11-19T01:36:43;-1.30;99.90
23507;DHT22;11930;53.076;18.250;2023-11-19T01:39:09;-1.30;99.90
23507;DHT22;11930;53.076;18.250;2023-11-19T01:41:35;-1.40;99.90
23507;DHT22;11930;53.076;18.250;2023-11-19T01:44:02;-1.40;99.90
23507;DHT22;11930;53.076;18.250;2023-11-19T01:46:29;-1.40;99.90
23507;DHT22;11930;53.076;18.250;2023-11-19T01:48:55;-1.40;99.90
23507;DHT22;11930;53.076;18.250;2023-11-19T01:51:22;-1.50;99.90
23507;DHT22;11930;53.076;18.250;2023-11-19T01:53:49;-1.50;99.90
23507;DHT22;11930;53.076;18.250;2023-11-19T01:56:15;-1.50;99.90
23507;DHT22;11930;53.076;18.250;2023-11-19T01:58:44;-1.50;99.90
23507;DHT22;11930;53.076;18.250;2023-11-19T02:01:12;-1.50;99.90
23507;DHT22;11930;53.076;18.250;2023-11-19T02:03:38;-1.50;99.90
23507;DHT22;11930;53.076;18.250;2023-11-19T02:06:05;-1.50;99.90
23507;DHT22;11930;53.076;18.250;2023-11-19T02:08:31;-1.50;99.90
23507;DHT22;11930;53.076;18.250;2023-11-19T02:10:57;-1.50;99.90
23507;DHT22;11930;53.076;18.250;2023-11-19T02:13:25;-1.50;99.90
23507;DHT22;11930;53.076;18.250;2023-11-19T02:15:52;-1.40;99.90
23507;DHT22;11930;53.076;18.250;2023-11-19T02:18:19;-1.40;99.90
23507;DHT22;11930;53.076;18.250;2023-11-19T02:20:46;-1.40;99.90
23507;DHT22;11930;53.076;18.250;2023-11-19T02:23:13;-1.40;99.90
23507;DHT22;11930;53.076;18.250;2023-11-19T02:25:40;-1.40;99.90
23507;DHT22;11930;53.076;18.250;2023-11-19T02:28:07;-1.40;99.90
23507;DHT22;11930;53.076;18.250;2023-11-19T02:30:34;-1.40;99.90
23507;DHT22;11930;53.076;18.250;2023-11-19T02:33:00;-1.40;99.90
23507;DHT22;11930;53.076;18.250;2023-11-19T02:35:31;-1.40;99.90
23507;DHT22;11930;53.076;18.250;2023-11-19T02:37:58;-1.50;99.90
23507;DHT22;11930;53.076;18.250;2023-11-19T02:40:30;-1.50;99.90
23507;DHT22;11930;53.076;18.250;2023-11-19T02:42:56;-1.50;99.90
23507;DHT22;11930;53.076;18.250;2023-11-19T02:45:25;-1.50;99.90
23507;DHT22;11930;53.076;18.250;2023-11-19T02:47:52;-1.50;99.90
23507;DHT22;11930;53.076;18.250;2023-11-19T02:50:19;-1.50;99.90
23507;DHT22;11930;53.076;18.250;2023-11-19T02:52:52;-1.60;99.90
23507;DHT22;11930;53.076;18.250;2023-11-19T02:55:19;-1.60;99.90
23507;DHT22;11930;53.076;18.250;2023-11-19T02:57:45;-1.60;99.90
23507;DHT22;11930;53.076;18.250;2023-11-19T03:00:16;-1.60;99.90
23507;DHT22;11930;53.076;18.250;2023-11-19T03:02:43;-1.60;99.90
23507;DHT22;11930;53.076;18.250;2023-11-19T03:05:14;-1.60;99.90
23507;DHT22;11930;53.076;18.250;2023-11-19T03:07:42;-1.60;99.90
23507;DHT22;11930;53.076;18.250;2023-11-19T03:10:12;-1.60;99.90
23507;DHT22;11930;53.076;18.250;2023-11-19T03:12:42;-1.50;99.90
23507;DHT22;11930;53.076;18.250;2023-11-19T03:15:09;-1.50;99.90
23507;DHT22;11930;53.076;18.250;2023-11-19T03:17:38;-1.50;99.90
23507;DHT22;11930;53.076;18.250;2023-11-19T03:20:09;-1.50;99.90
23507;DHT22;11930;53.076;18.250;2023-11-19T03:22:39;-1.50;99.90
23507;DHT22;11930;53.076;18.250;2023-11-19T03:25:05;-1.40;99.90
23507;DHT22;11930;53.076;18.250;2023-11-19T03:27:35;-1.40;99.90
23507;DHT22;11930;53.076;18.250;2023-11-19T03:30:03;-1.40;99.90
23507;DHT22;11930;53.076;18.250;2023-11-19T03:32:31;-1.30;99.90
23507;DHT22;11930;53.076;18.250;2023-11-19T03:34:58;-1.30;99.90
23507;DHT22;11930;53.076;18.250;2023-11-19T03:37:26;-1.30;99.90
23507;DHT22;11930;53.076;18.250;2023-11-19T03:39:54;-1.20;99.90
23507;DHT22;11930;53.076;18.250;2023-11-19T03:42:21;-1.20;99.90
23507;DHT22;11930;53.076;18.250;2023-11-19T03:44:47;-1.10;99.90
23507;DHT22;11930;53.076;18.250;2023-11-19T03:47:16;-1.10;99.90
23507;DHT22;11930;53.076;18.250;2023-11-19T03:49:42;-1.10;99.90
23507;DHT22;11930;53.076;18.250;2023-11-19T03:52:08;-1.00;99.90
23507;DHT22;11930;53.076;18.250;2023-11-19T03:54:35;-1.00;99.90
23507;DHT22;11930;53.076;18.250;2023-11-19T03:57:01;-1.00;99.90
23507;DHT22;11930;53.076;18.250;2023-11-19T03:59:29;-1.00;99.90
23507;DHT22;11930;53.076;18.250;2023-11-19T04:01:55;-0.90;99.90
23507;DHT22;11930;53.076;18.250;2023-11-19T04:04:22;-0.90;99.90
23507;DHT22;11930;53.076;18.250;2023-11-19T04:06:48;-0.90;99.90
23507;DHT22;11930;53.076;18.250;2023-11-19T04:09:14;-0.90;99.90
23507;DHT22;11930;53.076;18.250;2023-11-19T04:11:40;-0.90;99.90
23507;DHT22;11930;53.076;18.250;2023-11-19T04:14:06;-0.80;99.90
23507;DHT22;11930;53.076;18.250;2023-11-19T04:16:32;-0.80;99.90
23507;DHT22;11930;53.076;18.250;2023-11-19T04:18:59;-0.80;99.90
23507;DHT22;11930;53.076;18.250;2023-11-19T04:21:25;-0.80;99.90
23507;DHT22;11930;53.076;18.250;2023-11-19T04:23:51;-0.80;99.90
23507;DHT22;11930;53.076;18.250;2023-11-19T04:26:17;-0.70;99.90
23507;DHT22;11930;53.076;18.250;2023-11-19T04:28:43;-0.70;99.90
23507;DHT22;11930;53.076;18.250;2023-11-19T04:31:09;-0.70;99.90
23507;DHT22;11930;53.076;18.250;2023-11-19T04:33:35;-0.70;99.90
23507;DHT22;11930;53.076;18.250;2023-11-19T04:36:01;-0.70;99.90
23507;DHT22;11930;53.076;18.250;2023-11-19T04:38:28;-0.60;99.90
23507;DHT22;11930;53.076;18.250;2023-11-19T04:40:54;-0.60;99.90
23507;DHT22;11930;53.076;18.250;2023-11-19T04:43:23;-0.60;99.90
23507;DHT22;11930;53.076;18.250;2023-11-19T04:45:49;-0.60;99.90
23507;DHT22;11930;53.076;18.250;2023-11-19T04:48:15;-0.60;99.90
23507;DHT22;11930;53.076;18.250;2023-11-19T04:50:41;-0.60;99.90
23507;DHT22;11930;53.076;18.250;2023-11-19T04:53:07;-0.60;99.90
23507;DHT22;11930;53.076;18.250;2023-11-19T04:55:33;-0.50;99.90
23507;DHT22;11930;53.076;18.250;2023-11-19T04:57:59;-0.50;99.90
23507;DHT22;11930;53.076;18.250;2023-11-19T05:00:25;-0.50;99.90
23507;DHT22;11930;53.076;18.250;2023-11-19T05:02:51;-0.50;99.90
23507;DHT22;11930;53.076;18.250;2023-11-19T05:05:17;-0.50;99.90
23507;DHT22;11930;53.076;18.250;2023-11-19T05:07:44;-0.50;99.90
23507;DHT22;11930;53.076;18.250;2023-11-19T05:10:10;-0.50;99.90
23507;DHT22;11930;53.076;18.250;2023-11-19T05:12:36;-0.40;99.90
23507;DHT22;11930;53.076;18.250;2023-11-19T05:15:02;-0.50;99.90
23507;DHT22;11930;53.076;18.250;2023-11-19T05:17:28;-0.40;99.90
23507;DHT22;11930;53.076;18.250;2023-11-19T05:19:54;-0.40;99.90
23507;DHT22;11930;53.076;18.250;2023-11-19T05:22:20;-0.40;99.90
23507;DHT22;11930;53.076;18.250;2023-11-19T05:24:47;-0.30;99.90
23507;DHT22;11930;53.076;18.250;2023-11-19T05:27:15;-0.30;99.90
23507;DHT22;11930;53.076;18.250;2023-11-19T05:29:41;-0.30;99.90
23507;DHT22;11930;53.076;18.250;2023-11-19T05:32:08;-0.20;99.90
23507;DHT22;11930;53.076;18.250;2023-11-19T05:34:34;-0.20;99.90
23507;DHT22;11930;53.076;18.250;2023-11-19T05:37:00;-0.20;99.90
23507;DHT22;11930;53.076;18.250;2023-11-19T05:39:27;-0.20;99.90
23507;DHT22;11930;53.076;18.250;2023-11-19T05:41:53;-0.10;99.90
23507;DHT22;11930;53.076;18.250;2023-11-19T05:44:19;-0.10;99.90
23507;DHT22;11930;53.076;18.250;2023-11-19T05:46:45;-0.10;99.90
23507;DHT22;11930;53.076;18.250;2023-11-19T05:49:12;-0.10;99.90
23507;DHT22;11930;53.076;18.250;2023-11-19T05:51:39;-0.10;99.90
23507;DHT22;11930;53.076;18.250;2023-11-19T05:54:08;-0.10;99.90
23507;DHT22;11930;53.076;18.250;2023-11-19T05:56:36;0.00;99.90
23507;DHT22;11930;53.076;18.250;2023-11-19T05:59:02;0.00;99.90
23507;DHT22;11930;53.076;18.250;2023-11-19T06:01:34;0.00;99.90
23507;DHT22;11930;53.076;18.250;2023-11-19T06:04:00;0.00;99.90
23507;DHT22;11930;53.076;18.250;2023-11-19T06:06:28;0.00;99.90
23507;DHT22;11930;53.076;18.250;2023-11-19T06:08:54;0.00;99.90
23507;DHT22;11930;53.076;18.250;2023-11-19T06:11:20;0.10;99.90
23507;DHT22;11930;53.076;18.250;2023-11-19T06:13:46;0.00;99.90
23507;DHT22;11930;53.076;18.250;2023-11-19T06:16:13;0.10;99.90
23507;DHT22;11930;53.076;18.250;2023-11-19T06:18:40;0.10;99.90
23507;DHT22;11930;53.076;18.250;2023-11-19T06:21:07;0.10;99.90
23507;DHT22;11930;53.076;18.250;2023-11-19T06:23:33;0.10;99.90
23507;DHT22;11930;53.076;18.250;2023-11-19T06:25:59;0.10;99.90
23507;DHT22;11930;53.076;18.250;2023-11-19T06:28:25;0.10;99.90
23507;DHT22;11930;53.076;18.250;2023-11-19T06:30:51;0.10;99.90
23507;DHT22;11930;53.076;18.250;2023-11-19T06:33:17;0.10;99.90
23507;DHT22;11930;53.076;18.250;2023-11-19T06:35:43;0.10;99.90
23507;DHT22;11930;53.076;18.250;2023-11-19T06:38:10;0.10;99.90
23507;DHT22;11930;53.076;18.250;2023-11-19T06:40:36;0.10;99.90
23507;DHT22;11930;53.076;18.250;2023-11-19T06:43:02;0.10;99.90
23507;DHT22;11930;53.076;18.250;2023-11-19T06:45:34;0.10;99.90
23507;DHT22;11930;53.076;18.250;2023-11-19T06:48:06;0.10;99.90
23507;DHT22;11930;53.076;18.250;2023-11-19T06:50:33;0.10;99.90
23507;DHT22;11930;53.076;18.250;2023-11-19T06:52:59;0.10;99.90
23507;DHT22;11930;53.076;18.250;2023-11-19T06:55:26;0.20;99.90
23507;DHT22;11930;53.076;18.250;2023-11-19T06:57:52;0.10;99.90
23507;DHT22;11930;53.076;18.250;2023-11-19T07:00:18;0.10;99.90
23507;DHT22;11930;53.076;18.250;2023-11-19T07:02:44;0.10;99.90
23507;DHT22;11930;53.076;18.250;2023-11-19T07:05:10;0.20;99.90
23507;DHT22;11930;53.076;18.250;2023-11-19T07:07:39;0.20;99.90
23507;DHT22;11930;53.076;18.250;2023-11-19T07:10:06;0.20;99.90
23507;DHT22;11930;53.076;18.250;2023-11-19T07:12:35;0.20;99.90
23507;DHT22;11930;53.076;18.250;2023-11-19T07:15:02;0.30;99.90
23507;DHT22;11930;53.076;18.250;2023-11-19T07:17:30;0.30;99.90
23507;DHT22;11930;53.076;18.250;2023-11-19T07:19:57;0.30;99.90
23507;DHT22;11930;53.076;18.250;2023-11-19T07:22:26;0.40;99.90
23507;DHT22;11930;53.076;18.250;2023-11-19T07:24:52;0.40;99.90
23507;DHT22;11930;53.076;18.250;2023-11-19T07:27:19;0.40;99.90
23507;DHT22;11930;53.076;18.250;2023-11-19T07:29:45;0.40;99.90
23507;DHT22;11930;53.076;18.250;2023-11-19T07:32:12;0.50;99.90
23507;DHT22;11930;53.076;18.250;2023-11-19T07:34:39;0.50;99.90
23507;DHT22;11930;53.076;18.250;2023-11-19T07:37:05;0.50;99.90
23507;DHT22;11930;53.076;18.250;2023-11-19T07:39:32;0.50;99.90
23507;DHT22;11930;53.076;18.250;2023-11-19T07:41:58;0.50;99.90
23507;DHT22;11930;53.076;18.250;2023-11-19T07:44:24;0.60;99.90
23507;DHT22;11930;53.076;18.250;2023-11-19T07:46:52;0.60;99.90
23507;DHT22;11930;53.076;18.250;2023-11-19T07:49:17;0.60;99.90
23507;DHT22;11930;53.076;18.250;2023-11-19T07:51:44;0.60;99.90
23507;DHT22;11930;53.076;18.250;2023-11-19T07:54:10;0.60;99.90
23507;DHT22;11930;53.076;18.250;2023-11-19T07:56:36;0.60;99.90
23507;DHT22;11930;53.076;18.250;2023-11-19T07:59:02;0.60;99.90
23507;DHT22;11930;53.076;18.250;2023-11-19T08:01:29;0.70;99.90
23507;DHT22;11930;53.076;18.250;2023-11-19T08:03:55;0.70;99.90
23507;DHT22;11930;53.076;18.250;2023-11-19T08:06:21;0.70;99.90
23507;DHT22;11930;53.076;18.250;2023-11-19T08:08:47;0.70;99.90
23507;DHT22;11930;53.076;18.250;2023-11-19T08:11:14;0.70;99.90
23507;DHT22;11930;53.076;18.250;2023-11-19T08:13:41;0.70;99.90
23507;DHT22;11930;53.076;18.250;2023-11-19T08:16:09;0.70;99.90
23507;DHT22;11930;53.076;18.250;2023-11-19T08:18:35;0.70;99.90
23507;DHT22;11930;53.076;18.250;2023-11-19T08:21:01;0.70;99.90
23507;DHT22;11930;53.076;18.250;2023-11-19T08:23:30;0.80;99.90
23507;DHT22;11930;53.076;18.250;2023-11-19T08:25:57;0.70;99.90
23507;DHT22;11930;53.076;18.250;2023-11-19T08:28:22;0.80;99.90
23507;DHT22;11930;53.076;18.250;2023-11-19T08:30:49;0.80;99.90
23507;DHT22;11930;53.076;18.250;2023-11-19T08:33:14;0.80;99.90
23507;DHT22;11930;53.076;18.250;2023-11-19T08:35:41;0.80;99.90
23507;DHT22;11930;53.076;18.250;2023-11-19T08:38:07;0.80;99.90
23507;DHT22;11930;53.076;18.250;2023-11-19T08:40:33;0.80;99.90
23507;DHT22;11930;53.076;18.250;2023-11-19T08:42:59;0.80;99.90
23507;DHT22;11930;53.076;18.250;2023-11-19T08:45:25;0.80;99.90
23507;DHT22;11930;53.076;18.250;2023-11-19T08:47:51;0.90;99.90
23507;DHT22;11930;53.076;18.250;2023-11-19T08:50:17;0.90;99.90
23507;DHT22;11930;53.076;18.250;2023-11-19T08:52:43;0.90;99.90
23507;DHT22;11930;53.076;18.250;2023-11-19T08:55:12;0.90;99.90
23507;DHT22;11930;53.076;18.250;2023-11-19T08:57:39;1.00;99.90
23507;DHT22;11930;53.076;18.250;2023-11-19T09:00:06;1.00;99.90
23507;DHT22;11930;53.076;18.250;2023-11-19T09:02:37;1.00;99.90
23507;DHT22;11930;53.076;18.250;2023-11-19T09:05:05;1.00;99.90
23507;DHT22;11930;53.076;18.250;2023-11-19T09:07:33;1.00;99.90
23507;DHT22;11930;53.076;18.250;2023-11-19T09:09:59;1.00;99.90
23507;DHT22;11930;53.076;18.250;2023-11-19T09:12:25;1.00;99.90
23507;DHT22;11930;53.076;18.250;2023-11-19T09:14:51;1.10;99.90
23507;DHT22;11930;53.076;18.250;2023-11-19T09:17:17;1.10;99.90
23507;DHT22;11930;53.076;18.250;2023-11-19T09:19:44;1.20;99.90
23507;DHT22;11930;53.076;18.250;2023-11-19T09:22:10;1.20;99.90
23507;DHT22;11930;53.076;18.250;2023-11-19T09:24:36;1.20;99.90
23507;DHT22;11930;53.076;18.250;2023-11-19T09:27:02;1.20;99.90
23507;DHT22;11930;53.076;18.250;2023-11-19T09:29:31;1.30;99.90
23507;DHT22;11930;53.076;18.250;2023-11-19T09:31:57;1.30;99.90
23507;DHT22;11930;53.076;18.250;2023-11-19T09:34:23;1.30;99.90
23507;DHT22;11930;53.076;18.250;2023-11-19T09:36:49;1.30;99.90
23507;DHT22;11930;53.076;18.250;2023-11-19T09:39:15;1.30;99.90
23507;DHT22;11930;53.076;18.250;2023-11-19T09:41:44;1.30;99.90
23507;DHT22;11930;53.076;18.250;2023-11-19T09:44:13;1.40;99.90
23507;DHT22;11930;53.076;18.250;2023-11-19T09:46:41;1.30;99.90
23507;DHT22;11930;53.076;18.250;2023-11-19T09:49:08;1.40;99.90
23507;DHT22;11930;53.076;18.250;2023-11-19T09:51:38;1.40;99.90
23507;DHT22;11930;53.076;18.250;2023-11-19T09:54:04;1.40;99.90
23507;DHT22;11930;53.076;18.250;2023-11-19T09:56:30;1.50;99.90
23507;DHT22;11930;53.076;18.250;2023-11-19T09:58:57;1.50;99.90
23507;DHT22;11930;53.076;18.250;2023-11-19T10:01:24;1.50;99.90
23507;DHT22;11930;53.076;18.250;2023-11-19T10:03:52;1.50;99.90
23507;DHT22;11930;53.076;18.250;2023-11-19T10:06:20;1.50;99.90
23507;DHT22;11930;53.076;18.250;2023-11-19T10:08:47;1.60;99.90
23507;DHT22;11930;53.076;18.250;2023-11-19T10:11:13;1.60;99.90
23507;DHT22;11930;53.076;18.250;2023-11-19T10:13:41;1.60;99.90
23507;DHT22;11930;53.076;18.250;2023-11-19T10:16:09;1.60;99.90
23507;DHT22;11930;53.076;18.250;2023-11-19T10:18:37;1.70;99.90
23507;DHT22;11930;53.076;18.250;2023-11-19T10:21:04;1.70;99.90
23507;DHT22;11930;53.076;18.250;2023-11-19T10:24:02;1.70;99.90
23507;DHT22;11930;53.076;18.250;2023-11-19T10:26:28;1.70;99.90
23507;DHT22;11930;53.076;18.250;2023-11-19T10:28:56;1.70;99.90
23507;DHT22;11930;53.076;18.250;2023-11-19T10:31:22;1.60;99.90
23507;DHT22;11930;53.076;18.250;2023-11-19T10:33:52;1.60;99.90
23507;DHT22;11930;53.076;18.250;2023-11-19T10:36:18;1.70;99.90
23507;DHT22;11930;53.076;18.250;2023-11-19T10:38:53;1.70;99.90
23507;DHT22;11930;53.076;18.250;2023-11-19T10:41:32;1.70;99.90
23507;DHT22;11930;53.076;18.250;2023-11-19T10:43:59;1.70;99.90
23507;DHT22;11930;53.076;18.250;2023-11-19T10:49:07;1.70;99.90
23507;DHT22;11930;53.076;18.250;2023-11-19T10:51:34;1.80;99.90
23507;DHT22;11930;53.076;18.250;2023-11-19T10:54:05;1.70;99.90
23507;DHT22;11930;53.076;18.250;2023-11-19T10:56:35;1.70;99.90
23507;DHT22;11930;53.076;18.250;2023-11-19T10:59:02;1.70;99.90
23507;DHT22;11930;53.076;18.250;2023-11-19T11:01:44;1.70;99.90
23507;DHT22;11930;53.076;18.250;2023-11-19T11:04:14;1.70;99.90
23507;DHT22;11930;53.076;18.250;2023-11-19T11:06:41;1.60;99.90
23507;DHT22;11930;53.076;18.250;2023-11-19T11:09:08;1.60;99.90
23507;DHT22;11930;53.076;18.250;2023-11-19T11:11:39;1.60;99.90
23507;DHT22;11930;53.076;18.250;2023-11-19T11:14:07;1.50;99.90
23507;DHT22;11930;53.076;18.250;2023-11-19T11:16:34;1.50;99.90
23507;DHT22;11930;53.076;18.250;2023-11-19T11:19:02;1.50;99.90
23507;DHT22;11930;53.076;18.250;2023-11-19T11:21:28;1.40;99.90
23507;DHT22;11930;53.076;18.250;2023-11-19T11:32:37;1.30;99.90
23507;DHT22;11930;53.076;18.250;2023-11-19T11:38:04;1.20;99.90
23507;DHT22;11930;53.076;18.250;2023-11-19T11:40:32;1.20;99.90
23507;DHT22;11930;53.076;18.250;2023-11-19T11:42:58;1.10;99.90
23507;DHT22;11930;53.076;18.250;2023-11-19T11:45:39;1.10;99.90
23507;DHT22;11930;53.076;18.250;2023-11-19T11:50:48;1.10;99.90
23507;DHT22;11930;53.076;18.250;2023-11-19T11:53:21;1.10;99.90
23507;DHT22;11930;53.076;18.250;2023-11-19T11:58:20;1.00;99.90
23507;DHT22;11930;53.076;18.250;2023-11-19T12:00:48;1.00;99.90
23507;DHT22;11930;53.076;18.250;2023-11-19T12:03:14;1.10;99.90
23507;DHT22;11930;53.076;18.250;2023-11-19T12:05:42;1.00;99.90
23507;DHT22;11930;53.076;18.250;2023-11-19T12:08:11;1.00;99.90
23507;DHT22;11930;53.076;18.250;2023-11-19T12:13:10;1.00;99.90
23507;DHT22;11930;53.076;18.250;2023-11-19T12:18:31;1.00;99.90
23507;DHT22;11930;53.076;18.250;2023-11-19T12:20:59;0.90;99.90
23507;DHT22;11930;53.076;18.250;2023-11-19T12:23:31;1.00;99.90
23507;DHT22;11930;53.076;18.250;2023-11-19T12:25:59;0.90;99.90
23507;DHT22;11930;53.076;18.250;2023-11-19T12:28:25;0.90;99.90
23507;DHT22;11930;53.076;18.250;2023-11-19T12:30:54;0.90;99.90
23507;DHT22;11930;53.076;18.250;2023-11-19T12:33:20;0.90;99.90
23507;DHT22;11930;53.076;18.250;2023-11-19T12:35:48;0.90;99.90
23507;DHT22;11930;53.076;18.250;2023-11-19T12:38:24;1.00;99.90
23507;DHT22;11930;53.076;18.250;2023-11-19T12:41:07;0.90;99.90
23507;DHT22;11930;53.076;18.250;2023-11-19T12:43:34;0.90;99.90
23507;DHT22;11930;53.076;18.250;2023-11-19T12:46:00;0.90;99.90
23507;DHT22;11930;53.076;18.250;2023-11-19T12:48:26;0.90;99.90
23507;DHT22;11930;53.076;18.250;2023-11-19T12:50:56;0.90;99.90
23507;DHT22;11930;53.076;18.250;2023-11-19T12:53:24;0.90;99.90
23507;DHT22;11930;53.076;18.250;2023-11-19T12:55:52;1.00;99.90
23507;DHT22;11930;53.076;18.250;2023-11-19T12:58:35;0.90;99.90
23507;DHT22;11930;53.076;18.250;2023-11-19T13:01:06;0.90;99.90
23507;DHT22;11930;53.076;18.250;2023-11-19T13:03:36;1.00;99.90
23507;DHT22;11930;53.076;18.250;2023-11-19T13:06:09;1.10;99.90
23507;DHT22;11930;53.076;18.250;2023-11-19T13:08:48;1.00;99.90
23507;DHT22;11930;53.076;18.250;2023-11-19T13:11:33;1.00;99.90
23507;DHT22;11930;53.076;18.250;2023-11-19T13:14:00;1.00;99.90
23507;DHT22;11930;53.076;18.250;2023-11-19T13:16:27;1.00;99.90
23507;DHT22;11930;53.076;18.250;2023-11-19T13:18:54;1.00;99.90
23507;DHT22;11930;53.076;18.250;2023-11-19T13:21:20;1.00;99.90
23507;DHT22;11930;53.076;18.250;2023-11-19T13:23:46;1.00;99.90
23507;DHT22;11930;53.076;18.250;2023-11-19T13:26:13;1.10;99.90
23507;DHT22;11930;53.076;18.250;2023-11-19T13:28:39;1.10;99.90
23507;DHT22;11930;53.076;18.250;2023-11-19T13:31:05;1.00;99.90
23507;DHT22;11930;53.076;18.250;2023-11-19T13:33:36;1.10;99.90
23507;DHT22;11930;53.076;18.250;2023-11-19T13:36:03;1.10;99.90
23507;DHT22;11930;53.076;18.250;2023-11-19T13:38:34;1.10;99.90
23507;DHT22;11930;53.076;18.250;2023-11-19T13:41:04;1.10;99.90
23507;DHT22;11930;53.076;18.250;2023-11-19T13:43:30;1.00;99.90
23507;DHT22;11930;53.076;18.250;2023-11-19T13:45:56;1.00;99.90
23507;DHT22;11930;53.076;18.250;2023-11-19T13:48:24;1.00;99.90
23507;DHT22;11930;53.076;18.250;2023-11-19T13:50:50;1.10;99.90
23507;DHT22;11930;53.076;18.250;2023-11-19T13:53:16;1.10;99.90
23507;DHT22;11930;53.076;18.250;2023-11-19T13:55:43;1.10;99.90
23507;DHT22;11930;53.076;18.250;2023-11-19T13:58:10;1.00;99.90
23507;DHT22;11930;53.076;18.250;2023-11-19T14:00:37;1.00;99.90
23507;DHT22;11930;53.076;18.250;2023-11-19T14:03:03;1.00;99.90
23507;DHT22;11930;53.076;18.250;2023-11-19T14:05:29;1.00;99.90
23507;DHT22;11930;53.076;18.250;2023-11-19T14:07:55;1.10;99.90
23507;DHT22;11930;53.076;18.250;2023-11-19T14:10:22;1.00;99.90
23507;DHT22;11930;53.076;18.250;2023-11-19T14:12:49;1.10;99.90
23507;DHT22;11930;53.076;18.250;2023-11-19T14:15:18;1.00;99.90
23507;DHT22;11930;53.076;18.250;2023-11-19T14:17:44;1.00;99.90
23507;DHT22;11930;53.076;18.250;2023-11-19T14:20:10;1.00;99.90
23507;DHT22;11930;53.076;18.250;2023-11-19T14:22:41;1.00;99.90
23507;DHT22;11930;53.076;18.250;2023-11-19T14:25:11;1.00;99.90
23507;DHT22;11930;53.076;18.250;2023-11-19T14:27:38;1.00;99.90
23507;DHT22;11930;53.076;18.250;2023-11-19T14:30:05;1.00;99.90
23507;DHT22;11930;53.076;18.250;2023-11-19T14:32:31;1.00;99.90
23507;DHT22;11930;53.076;18.250;2023-11-19T14:34:58;1.00;99.90
23507;DHT22;11930;53.076;18.250;2023-11-19T14:37:24;1.00;99.90
23507;DHT22;11930;53.076;18.250;2023-11-19T14:39:50;1.00;99.90
23507;DHT22;11930;53.076;18.250;2023-11-19T14:42:19;1.00;99.90
23507;DHT22;11930;53.076;18.250;2023-11-19T14:44:45;1.00;99.90
23507;DHT22;11930;53.076;18.250;2023-11-19T14:47:11;1.00;99.90
23507;DHT22;11930;53.076;18.250;2023-11-19T14:49:37;1.00;99.90
23507;DHT22;11930;53.076;18.250;2023-11-19T14:52:04;1.00;99.90
23507;DHT22;11930;53.076;18.250;2023-11-19T14:54:30;1.00;99.90
23507;DHT22;11930;53.076;18.250;2023-11-19T14:56:56;1.00;99.90
23507;DHT22;11930;53.076;18.250;2023-11-19T14:59:23;1.00;99.90
23507;DHT22;11930;53.076;18.250;2023-11-19T15:01:49;1.00;99.90
23507;DHT22;11930;53.076;18.250;2023-11-19T15:04:15;1.00;99.90
23507;DHT22;11930;53.076;18.250;2023-11-19T15:06:42;1.00;99.90
23507;DHT22;11930;53.076;18.250;2023-11-19T15:09:08;1.00;99.90
23507;DHT22;11930;53.076;18.250;2023-11-19T15:11:35;1.00;99.90
23507;DHT22;11930;53.076;18.250;2023-11-19T15:14:01;1.00;99.90
23507;DHT22;11930;53.076;18.250;2023-11-19T15:16:28;1.00;99.90
23507;DHT22;11930;53.076;18.250;2023-11-19T15:18:59;1.00;99.90
23507;DHT22;11930;53.076;18.250;2023-11-19T15:21:26;1.00;99.90
23507;DHT22;11930;53.076;18.250;2023-11-19T15:23:55;1.00;99.90
23507;DHT22;11930;53.076;18.250;2023-11-19T15:26:22;1.00;99.90
23507;DHT22;11930;53.076;18.250;2023-11-19T15:28:48;1.00;99.90
23507;DHT22;11930;53.076;18.250;2023-11-19T15:31:14;1.00;99.90
23507;DHT22;11930;53.076;18.250;2023-11-19T15:33:42;1.00;99.90
23507;DHT22;11930;53.076;18.250;2023-11-19T15:36:08;1.00;99.90
23507;DHT22;11930;53.076;18.250;2023-11-19T15:38:35;1.00;99.90
23507;DHT22;11930;53.076;18.250;2023-11-19T15:41:01;1.00;99.90
23507;DHT22;11930;53.076;18.250;2023-11-19T15:43:28;1.00;99.90
23507;DHT22;11930;53.076;18.250;2023-11-19T15:45:55;1.00;99.90
23507;DHT22;11930;53.076;18.250;2023-11-19T15:48:21;1.00;99.90
23507;DHT22;11930;53.076;18.250;2023-11-19T15:50:47;1.00;99.90